sensor_id;sensor_type;location;lat;lon;timestamp;P1;durP1;ratioP1;P2;durP2;ratioP2
24801;SDS011;12898;50.520;12.152;2022-09-23T00:00:47;13.33;;;7.53;;
24801;SDS011;12898;50.520;12.152;2022-09-23T00:03:13;13.47;;;7.20;;
24801;SDS011;12898;50.520;12.152;2022-09-23T00:05:44;13.93;;;7.90;;
24801;SDS011;12898;50.520;12.152;2022-09-23T00:08:22;15.63;;;7.87;;
24801;SDS011;12898;50.520;12.152;2022-09-23T00:10:48;14.10;;;6.67;;
24801;SDS011;12898;50.520;12.152;2022-09-23T00:13:14;13.47;;;7.23;;
24801;SDS011;12898;50.520;12.152;2022-09-23T00:15:40;12.97;;;6.43;;
24801;SDS011;12898;50.520;12.152;2022-09-23T00:18:06;12.87;;;6.47;;
24801;SDS011;12898;50.520;12.152;2022-09-23T00:20:32;11.83;;;6.27;;
24801;SDS011;12898;50.520;12.152;2022-09-23T00:23:00;12.07;;;6.70;;
24801;SDS011;12898;50.520;12.152;2022-09-23T00:25:26;11.23;;;6.27;;
24801;SDS011;12898;50.520;12.152;2022-09-23T00:27:53;12.93;;;6.53;;
24801;SDS011;12898;50.520;12.152;2022-09-23T00:30:20;11.37;;;6.30;;
24801;SDS011;12898;50.520;12.152;2022-09-23T00:32:47;10.93;;;6.17;;
24801;SDS011;12898;50.520;12.152;2022-09-23T00:35:13;13.63;;;6.30;;
24801;SDS011;12898;50.520;12.152;2022-09-23T00:37:39;12.93;;;6.93;;
24801;SDS011;12898;50.520;12.152;2022-09-23T00:40:05;10.80;;;6.03;;
24801;SDS011;12898;50.520;12.152;2022-09-23T00:42:32;11.73;;;6.50;;
24801;SDS011;12898;50.520;12.152;2022-09-23T00:44:58;12.90;;;6.60;;
24801;SDS011;12898;50.520;12.152;2022-09-23T00:47:32;14.47;;;6.10;;
24801;SDS011;12898;50.520;12.152;2022-09-23T00:53:02;10.50;;;6.20;;
24801;SDS011;12898;50.520;12.152;2022-09-23T00:55:32;13.07;;;7.03;;
24801;SDS011;12898;50.520;12.152;2022-09-23T00:58:04;14.40;;;6.70;;
24801;SDS011;12898;50.520;12.152;2022-09-23T01:00:35;10.67;;;5.83;;
24801;SDS011;12898;50.520;12.152;2022-09-23T01:03:01;14.33;;;6.70;;
24801;SDS011;12898;50.520;12.152;2022-09-23T01:05:30;11.97;;;6.67;;
24801;SDS011;12898;50.520;12.152;2022-09-23T01:07:58;11.13;;;6.20;;
24801;SDS011;12898;50.520;12.152;2022-09-23T01:10:25;11.80;;;6.53;;
24801;SDS011;12898;50.520;12.152;2022-09-23T01:13:12;14.13;;;7.53;;
24801;SDS011;12898;50.520;12.152;2022-09-23T01:19:33;12.87;;;6.83;;
24801;SDS011;12898;50.520;12.152;2022-09-23T01:36:12;11.43;;;6.13;;
24801;SDS011;12898;50.520;12.152;2022-09-23T01:44:33;11.50;;;6.07;;
24801;SDS011;12898;50.520;12.152;2022-09-23T01:47:07;11.63;;;6.23;;
24801;SDS011;12898;50.520;12.152;2022-09-23T01:49:45;12.53;;;6.20;;
24801;SDS011;12898;50.520;12.152;2022-09-23T01:52:34;12.80;;;6.03;;
24801;SDS011;12898;50.520;12.152;2022-09-23T01:55:24;11.60;;;6.20;;
24801;SDS011;12898;50.520;12.152;2022-09-23T01:58:13;12.63;;;6.27;;
24801;SDS011;12898;50.520;12.152;2022-09-23T02:00:49;11.80;;;6.13;;
24801;SDS011;12898;50.520;12.152;2022-09-23T02:03:33;12.37;;;6.07;;
24801;SDS011;12898;50.520;12.152;2022-09-23T02:06:20;10.77;;;6.10;;
24801;SDS011;12898;50.520;12.152;2022-09-23T02:11:31;11.20;;;6.03;;
24801;SDS011;12898;50.520;12.152;2022-09-23T02:16:50;14.13;;;6.20;;
24801;SDS011;12898;50.520;12.152;2022-09-23T02:19:29;12.27;;;6.17;;
24801;SDS011;12898;50.520;12.152;2022-09-23T02:22:03;11.37;;;5.87;;
24801;SDS011;12898;50.520;12.152;2022-09-23T02:24:43;9.97;;;5.70;;
24801;SDS011;12898;50.520;12.152;2022-09-23T02:32:48;10.43;;;5.67;;
24801;SDS011;12898;50.520;12.152;2022-09-23T02:35:30;12.77;;;5.97;;
24801;SDS011;12898;50.520;12.152;2022-09-23T02:44:12;11.87;;;5.40;;
24801;SDS011;12898;50.520;12.152;2022-09-23T02:46:42;13.37;;;6.17;;
24801;SDS011;12898;50.520;12.152;2022-09-23T02:49:10;11.77;;;6.40;;
24801;SDS011;12898;50.520;12.152;2022-09-23T02:51:43;10.57;;;5.73;;
24801;SDS011;12898;50.520;12.152;2022-09-23T02:54:12;11.07;;;5.93;;
24801;SDS011;12898;50.520;12.152;2022-09-23T02:56:45;9.70;;;5.50;;
24801;SDS011;12898;50.520;12.152;2022-09-23T02:59:13;10.80;;;5.70;;
24801;SDS011;12898;50.520;12.152;2022-09-23T03:01:45;11.30;;;5.97;;
24801;SDS011;12898;50.520;12.152;2022-09-23T03:13:38;11.83;;;5.73;;
24801;SDS011;12898;50.520;12.152;2022-09-23T03:24:51;10.87;;;6.43;;
24801;SDS011;12898;50.520;12.152;2022-09-23T03:27:20;11.93;;;5.97;;
24801;SDS011;12898;50.520;12.152;2022-09-23T03:29:50;11.30;;;6.50;;
24801;SDS011;12898;50.520;12.152;2022-09-23T03:32:19;10.10;;;5.67;;
24801;SDS011;12898;50.520;12.152;2022-09-23T03:34:49;9.80;;;5.77;;
24801;SDS011;12898;50.520;12.152;2022-09-23T03:40:19;10.87;;;5.67;;
24801;SDS011;12898;50.520;12.152;2022-09-23T03:42:54;10.80;;;5.70;;
24801;SDS011;12898;50.520;12.152;2022-09-23T03:45:22;10.47;;;5.90;;
24801;SDS011;12898;50.520;12.152;2022-09-23T03:47:54;12.93;;;6.30;;
24801;SDS011;12898;50.520;12.152;2022-09-23T03:50:20;11.37;;;7.17;;
24801;SDS011;12898;50.520;12.152;2022-09-23T03:52:46;11.90;;;6.30;;
24801;SDS011;12898;50.520;12.152;2022-09-23T03:55:13;11.27;;;6.00;;
24801;SDS011;12898;50.520;12.152;2022-09-23T03:57:40;13.50;;;7.27;;
24801;SDS011;12898;50.520;12.152;2022-09-23T04:00:06;13.07;;;7.00;;
24801;SDS011;12898;50.520;12.152;2022-09-23T04:02:33;14.47;;;7.50;;
24801;SDS011;12898;50.520;12.152;2022-09-23T04:04:59;14.97;;;8.43;;
24801;SDS011;12898;50.520;12.152;2022-09-23T04:07:25;16.17;;;8.30;;
24801;SDS011;12898;50.520;12.152;2022-09-23T04:09:51;14.70;;;7.40;;
24801;SDS011;12898;50.520;12.152;2022-09-23T04:12:17;14.97;;;7.93;;
24801;SDS011;12898;50.520;12.152;2022-09-23T04:14:43;15.63;;;7.40;;
24801;SDS011;12898;50.520;12.152;2022-09-23T04:17:09;19.37;;;7.73;;
24801;SDS011;12898;50.520;12.152;2022-09-23T04:19:36;15.03;;;7.20;;
24801;SDS011;12898;50.520;12.152;2022-09-23T04:22:02;14.80;;;7.70;;
24801;SDS011;12898;50.520;12.152;2022-09-23T04:24:28;15.90;;;8.13;;
24801;SDS011;12898;50.520;12.152;2022-09-23T04:26:54;15.00;;;8.10;;
24801;SDS011;12898;50.520;12.152;2022-09-23T04:29:20;16.30;;;7.87;;
24801;SDS011;12898;50.520;12.152;2022-09-23T04:31:47;18.10;;;9.20;;
24801;SDS011;12898;50.520;12.152;2022-09-23T04:34:13;21.17;;;9.87;;
24801;SDS011;12898;50.520;12.152;2022-09-23T04:36:41;17.60;;;9.60;;
24801;SDS011;12898;50.520;12.152;2022-09-23T04:39:09;17.57;;;10.07;;
24801;SDS011;12898;50.520;12.152;2022-09-23T04:41:35;18.57;;;9.80;;
24801;SDS011;12898;50.520;12.152;2022-09-23T04:44:01;21.87;;;10.27;;
24801;SDS011;12898;50.520;12.152;2022-09-23T04:46:27;20.40;;;10.43;;
24801;SDS011;12898;50.520;12.152;2022-09-23T04:48:53;18.60;;;9.80;;
24801;SDS011;12898;50.520;12.152;2022-09-23T04:51:19;19.27;;;9.90;;
24801;SDS011;12898;50.520;12.152;2022-09-23T04:53:47;19.57;;;10.30;;
24801;SDS011;12898;50.520;12.152;2022-09-23T04:56:16;20.03;;;10.47;;
24801;SDS011;12898;50.520;12.152;2022-09-23T04:58:50;21.10;;;10.50;;
24801;SDS011;12898;50.520;12.152;2022-09-23T05:03:49;21.87;;;10.23;;
24801;SDS011;12898;50.520;12.152;2022-09-23T05:06:21;19.17;;;10.33;;
24801;SDS011;12898;50.520;12.152;2022-09-23T05:08:48;21.00;;;10.53;;
24801;SDS011;12898;50.520;12.152;2022-09-23T05:11:17;17.90;;;9.93;;
24801;SDS011;12898;50.520;12.152;2022-09-23T05:13:46;21.73;;;11.73;;
24801;SDS011;12898;50.520;12.152;2022-09-23T05:16:14;22.67;;;12.57;;
24801;SDS011;12898;50.520;12.152;2022-09-23T05:18:41;25.83;;;12.77;;
24801;SDS011;12898;50.520;12.152;2022-09-23T05:21:09;29.23;;;13.23;;
24801;SDS011;12898;50.520;12.152;2022-09-23T05:23:37;25.93;;;12.37;;
24801;SDS011;12898;50.520;12.152;2022-09-23T05:26:05;22.23;;;12.60;;
24801;SDS011;12898;50.520;12.152;2022-09-23T05:28:34;27.63;;;15.83;;
24801;SDS011;12898;50.520;12.152;2022-09-23T05:31:04;25.27;;;12.67;;
24801;SDS011;12898;50.520;12.152;2022-09-23T05:33:39;25.20;;;11.47;;
24801;SDS011;12898;50.520;12.152;2022-09-23T05:36:10;21.13;;;11.50;;
24801;SDS011;12898;50.520;12.152;2022-09-23T05:38:37;19.50;;;11.17;;
24801;SDS011;12898;50.520;12.152;2022-09-23T05:41:04;21.77;;;10.47;;
24801;SDS011;12898;50.520;12.152;2022-09-23T05:43:33;18.37;;;10.63;;
24801;SDS011;12898;50.520;12.152;2022-09-23T05:48:36;21.37;;;12.30;;
24801;SDS011;12898;50.520;12.152;2022-09-23T05:51:02;21.93;;;12.20;;
24801;SDS011;12898;50.520;12.152;2022-09-23T05:53:35;24.07;;;12.03;;
24801;SDS011;12898;50.520;12.152;2022-09-23T05:56:01;24.00;;;12.37;;
24801;SDS011;12898;50.520;12.152;2022-09-23T05:58:27;27.30;;;13.37;;
24801;SDS011;12898;50.520;12.152;2022-09-23T06:00:53;23.30;;;12.07;;
24801;SDS011;12898;50.520;12.152;2022-09-23T06:03:22;22.80;;;12.50;;
24801;SDS011;12898;50.520;12.152;2022-09-23T06:05:52;21.93;;;11.83;;
24801;SDS011;12898;50.520;12.152;2022-09-23T06:08:20;21.00;;;12.57;;
24801;SDS011;12898;50.520;12.152;2022-09-23T06:10:48;19.90;;;10.73;;
24801;SDS011;12898;50.520;12.152;2022-09-23T06:13:14;19.03;;;11.63;;
24801;SDS011;12898;50.520;12.152;2022-09-23T06:15:40;16.67;;;10.17;;
24801;SDS011;12898;50.520;12.152;2022-09-23T06:18:08;18.73;;;10.33;;
24801;SDS011;12898;50.520;12.152;2022-09-23T06:20:35;15.03;;;9.20;;
24801;SDS011;12898;50.520;12.152;2022-09-23T06:23:05;16.40;;;9.73;;
24801;SDS011;12898;50.520;12.152;2022-09-23T06:25:34;17.87;;;10.30;;
24801;SDS011;12898;50.520;12.152;2022-09-23T06:28:02;17.63;;;10.20;;
24801;SDS011;12898;50.520;12.152;2022-09-23T06:30:28;17.37;;;9.67;;
24801;SDS011;12898;50.520;12.152;2022-09-23T06:32:55;15.73;;;10.23;;
24801;SDS011;12898;50.520;12.152;2022-09-23T06:35:25;17.90;;;9.83;;
24801;SDS011;12898;50.520;12.152;2022-09-23T06:37:51;16.30;;;9.97;;
24801;SDS011;12898;50.520;12.152;2022-09-23T06:40:18;14.67;;;9.53;;
24801;SDS011;12898;50.520;12.152;2022-09-23T06:42:46;14.17;;;8.63;;
24801;SDS011;12898;50.520;12.152;2022-09-23T06:45:12;17.10;;;10.10;;
24801;SDS011;12898;50.520;12.152;2022-09-23T06:47:39;18.00;;;10.07;;
24801;SDS011;12898;50.520;12.152;2022-09-23T06:50:09;14.43;;;9.97;;
24801;SDS011;12898;50.520;12.152;2022-09-23T06:52:38;16.83;;;9.17;;
24801;SDS011;12898;50.520;12.152;2022-09-23T06:55:04;14.13;;;8.47;;
24801;SDS011;12898;50.520;12.152;2022-09-23T06:57:30;13.97;;;8.20;;
24801;SDS011;12898;50.520;12.152;2022-09-23T06:59:57;12.47;;;8.13;;
24801;SDS011;12898;50.520;12.152;2022-09-23T07:02:26;16.17;;;10.07;;
24801;SDS011;12898;50.520;12.152;2022-09-23T07:04:52;12.83;;;7.97;;
24801;SDS011;12898;50.520;12.152;2022-09-23T07:07:20;12.80;;;7.57;;
24801;SDS011;12898;50.520;12.152;2022-09-23T07:09:46;10.15;;;6.53;;
24801;SDS011;12898;50.520;12.152;2022-09-23T07:12:12;14.27;;;7.43;;
24801;SDS011;12898;50.520;12.152;2022-09-23T07:14:38;20.93;;;10.47;;
24801;SDS011;12898;50.520;12.152;2022-09-23T07:17:03;14.30;;;8.23;;
24801;SDS011;12898;50.520;12.152;2022-09-23T07:19:29;11.85;;;5.85;;
24801;SDS011;12898;50.520;12.152;2022-09-23T07:21:55;10.73;;;5.50;;
24801;SDS011;12898;50.520;12.152;2022-09-23T07:24:21;9.23;;;5.10;;
24801;SDS011;12898;50.520;12.152;2022-09-23T07:26:47;9.02;;;5.68;;
24801;SDS011;12898;50.520;12.152;2022-09-23T07:29:13;10.40;;;5.60;;
24801;SDS011;12898;50.520;12.152;2022-09-23T07:31:39;7.85;;;4.97;;
24801;SDS011;12898;50.520;12.152;2022-09-23T07:34:06;9.07;;;4.82;;
24801;SDS011;12898;50.520;12.152;2022-09-23T07:36:36;6.47;;;3.83;;
24801;SDS011;12898;50.520;12.152;2022-09-23T07:39:04;7.28;;;4.05;;
24801;SDS011;12898;50.520;12.152;2022-09-23T07:41:32;6.28;;;3.80;;
24801;SDS011;12898;50.520;12.152;2022-09-23T07:43:59;8.43;;;3.88;;
24801;SDS011;12898;50.520;12.152;2022-09-23T07:46:26;6.53;;;3.95;;
24801;SDS011;12898;50.520;12.152;2022-09-23T07:48:54;7.00;;;3.75;;
24801;SDS011;12898;50.520;12.152;2022-09-23T07:51:21;8.02;;;4.22;;
24801;SDS011;12898;50.520;12.152;2022-09-23T07:53:49;6.45;;;3.83;;
24801;SDS011;12898;50.520;12.152;2022-09-23T07:56:17;11.65;;;6.18;;
24801;SDS011;12898;50.520;12.152;2022-09-23T07:58:44;4.82;;;3.33;;
24801;SDS011;12898;50.520;12.152;2022-09-23T08:01:24;6.40;;;3.38;;
24801;SDS011;12898;50.520;12.152;2022-09-23T08:04:21;7.85;;;3.45;;
24801;SDS011;12898;50.520;12.152;2022-09-23T08:06:56;6.13;;;3.60;;
24801;SDS011;12898;50.520;12.152;2022-09-23T08:09:26;4.32;;;3.08;;
24801;SDS011;12898;50.520;12.152;2022-09-23T08:11:57;5.60;;;3.25;;
24801;SDS011;12898;50.520;12.152;2022-09-23T08:14:23;7.93;;;3.72;;
24801;SDS011;12898;50.520;12.152;2022-09-23T08:16:49;6.32;;;3.20;;
24801;SDS011;12898;50.520;12.152;2022-09-23T08:19:16;6.43;;;3.30;;
24801;SDS011;12898;50.520;12.152;2022-09-23T08:21:43;5.72;;;3.13;;
24801;SDS011;12898;50.520;12.152;2022-09-23T08:24:12;8.68;;;4.00;;
24801;SDS011;12898;50.520;12.152;2022-09-23T08:26:43;5.57;;;3.38;;
24801;SDS011;12898;50.520;12.152;2022-09-23T08:29:11;5.32;;;3.40;;
24801;SDS011;12898;50.520;12.152;2022-09-23T08:31:38;7.63;;;3.75;;
24801;SDS011;12898;50.520;12.152;2022-09-23T08:34:04;6.45;;;3.47;;
24801;SDS011;12898;50.520;12.152;2022-09-23T08:36:31;6.20;;;3.55;;
24801;SDS011;12898;50.520;12.152;2022-09-23T08:38:58;6.75;;;3.53;;
24801;SDS011;12898;50.520;12.152;2022-09-23T08:44:07;6.40;;;3.38;;
24801;SDS011;12898;50.520;12.152;2022-09-23T08:46:36;7.75;;;3.30;;
24801;SDS011;12898;50.520;12.152;2022-09-23T08:49:10;5.53;;;2.85;;
24801;SDS011;12898;50.520;12.152;2022-09-23T08:51:46;6.35;;;3.05;;
24801;SDS011;12898;50.520;12.152;2022-09-23T08:54:15;7.70;;;2.85;;
24801;SDS011;12898;50.520;12.152;2022-09-23T08:56:42;5.28;;;2.85;;
24801;SDS011;12898;50.520;12.152;2022-09-23T09:02:12;6.10;;;2.60;;
24801;SDS011;12898;50.520;12.152;2022-09-23T09:04:43;4.88;;;2.55;;
24801;SDS011;12898;50.520;12.152;2022-09-23T09:07:14;6.75;;;2.92;;
24801;SDS011;12898;50.520;12.152;2022-09-23T09:10:05;7.35;;;3.63;;
24801;SDS011;12898;50.520;12.152;2022-09-23T09:12:42;7.43;;;3.17;;
24801;SDS011;12898;50.520;12.152;2022-09-23T09:15:19;11.27;;;4.05;;
24801;SDS011;12898;50.520;12.152;2022-09-23T09:20:47;7.97;;;3.00;;
24801;SDS011;12898;50.520;12.152;2022-09-23T09:23:32;6.45;;;3.35;;
24801;SDS011;12898;50.520;12.152;2022-09-23T09:26:15;5.05;;;2.63;;
24801;SDS011;12898;50.520;12.152;2022-09-23T09:31:46;4.40;;;2.53;;
24801;SDS011;12898;50.520;12.152;2022-09-23T09:37:05;7.70;;;2.90;;
24801;SDS011;12898;50.520;12.152;2022-09-23T09:39:38;11.07;;;6.60;;
24801;SDS011;12898;50.520;12.152;2022-09-23T09:42:21;9.70;;;3.28;;
24801;SDS011;12898;50.520;12.152;2022-09-23T09:47:57;6.40;;;2.47;;
24801;SDS011;12898;50.520;12.152;2022-09-23T09:50:47;5.78;;;2.70;;
24801;SDS011;12898;50.520;12.152;2022-09-23T09:55:44;3.78;;;2.55;;
24801;SDS011;12898;50.520;12.152;2022-09-23T09:58:12;5.05;;;2.85;;
24801;SDS011;12898;50.520;12.152;2022-09-23T10:00:43;3.70;;;2.40;;
24801;SDS011;12898;50.520;12.152;2022-09-23T10:11:12;3.65;;;2.03;;
24801;SDS011;12898;50.520;12.152;2022-09-23T10:13:40;5.13;;;1.85;;
24801;SDS011;12898;50.520;12.152;2022-09-23T10:16:33;3.53;;;1.92;;
24801;SDS011;12898;50.520;12.152;2022-09-23T10:18:59;5.15;;;2.13;;
24801;SDS011;12898;50.520;12.152;2022-09-23T10:21:31;4.57;;;2.20;;
24801;SDS011;12898;50.520;12.152;2022-09-23T10:24:01;4.45;;;1.83;;
24801;SDS011;12898;50.520;12.152;2022-09-23T10:26:34;3.78;;;2.00;;
24801;SDS011;12898;50.520;12.152;2022-09-23T10:32:22;3.38;;;1.58;;
24801;SDS011;12898;50.520;12.152;2022-09-23T10:35:12;4.22;;;1.60;;
24801;SDS011;12898;50.520;12.152;2022-09-23T10:38:03;3.17;;;1.85;;
24801;SDS011;12898;50.520;12.152;2022-09-23T10:40:33;3.50;;;1.55;;
24801;SDS011;12898;50.520;12.152;2022-09-23T10:49:30;4.75;;;1.75;;
24801;SDS011;12898;50.520;12.152;2022-09-23T10:52:28;6.35;;;1.60;;
24801;SDS011;12898;50.520;12.152;2022-09-23T11:06:43;5.32;;;1.70;;
24801;SDS011;12898;50.520;12.152;2022-09-23T11:18:04;3.13;;;1.80;;
24801;SDS011;12898;50.520;12.152;2022-09-23T11:27:34;2.08;;;1.48;;
24801;SDS011;12898;50.520;12.152;2022-09-23T11:38:18;3.03;;;1.45;;
24801;SDS011;12898;50.520;12.152;2022-09-23T11:40:51;4.18;;;1.52;;
24801;SDS011;12898;50.520;12.152;2022-09-23T11:43:24;2.95;;;1.40;;
24801;SDS011;12898;50.520;12.152;2022-09-23T11:45:59;2.97;;;1.40;;
24801;SDS011;12898;50.520;12.152;2022-09-23T11:48:49;1.95;;;1.42;;
24801;SDS011;12898;50.520;12.152;2022-09-23T11:51:55;2.80;;;1.65;;
24801;SDS011;12898;50.520;12.152;2022-09-23T11:57:32;4.22;;;1.48;;
24801;SDS011;12898;50.520;12.152;2022-09-23T12:00:29;1.98;;;1.50;;
24801;SDS011;12898;50.520;12.152;2022-09-23T12:05:51;2.25;;;1.38;;
24801;SDS011;12898;50.520;12.152;2022-09-23T12:08:29;2.63;;;1.70;;
24801;SDS011;12898;50.520;12.152;2022-09-23T12:22:09;8.75;;;1.50;;
24801;SDS011;12898;50.520;12.152;2022-09-23T12:28:14;1.65;;;1.38;;
24801;SDS011;12898;50.520;12.152;2022-09-23T12:30:44;1.42;;;1.20;;
24801;SDS011;12898;50.520;12.152;2022-09-23T12:33:24;3.85;;;1.67;;
24801;SDS011;12898;50.520;12.152;2022-09-23T12:38:36;2.63;;;1.75;;
24801;SDS011;12898;50.520;12.152;2022-09-23T12:41:27;1.92;;;1.40;;
24801;SDS011;12898;50.520;12.152;2022-09-23T12:46:39;2.10;;;1.55;;
24801;SDS011;12898;50.520;12.152;2022-09-23T12:49:23;1.98;;;1.50;;
24801;SDS011;12898;50.520;12.152;2022-09-23T12:52:23;2.10;;;1.48;;
24801;SDS011;12898;50.520;12.152;2022-09-23T12:57:47;4.03;;;1.70;;
24801;SDS011;12898;50.520;12.152;2022-09-23T13:00:17;2.33;;;1.67;;
24801;SDS011;12898;50.520;12.152;2022-09-23T13:02:54;2.75;;;1.70;;
24801;SDS011;12898;50.520;12.152;2022-09-23T13:05:52;2.40;;;1.73;;
24801;SDS011;12898;50.520;12.152;2022-09-23T13:08:43;4.25;;;1.98;;
24801;SDS011;12898;50.520;12.152;2022-09-23T13:13:54;2.65;;;1.70;;
24801;SDS011;12898;50.520;12.152;2022-09-23T13:16:31;1.70;;;1.45;;
24801;SDS011;12898;50.520;12.152;2022-09-23T13:18:58;3.92;;;1.60;;
24801;SDS011;12898;50.520;12.152;2022-09-23T13:26:46;2.70;;;1.63;;
24801;SDS011;12898;50.520;12.152;2022-09-23T13:32:11;4.20;;;1.80;;
24801;SDS011;12898;50.520;12.152;2022-09-23T13:34:51;1.70;;;1.42;;
24801;SDS011;12898;50.520;12.152;2022-09-23T13:37:30;3.10;;;1.42;;
24801;SDS011;12898;50.520;12.152;2022-09-23T13:42:52;2.63;;;1.60;;
24801;SDS011;12898;50.520;12.152;2022-09-23T13:45:24;3.97;;;1.98;;
24801;SDS011;12898;50.520;12.152;2022-09-23T13:47:53;3.67;;;1.75;;
24801;SDS011;12898;50.520;12.152;2022-09-23T13:50:31;3.45;;;1.63;;
24801;SDS011;12898;50.520;12.152;2022-09-23T13:52:59;3.05;;;1.88;;
24801;SDS011;12898;50.520;12.152;2022-09-23T13:55:31;3.70;;;1.50;;
24801;SDS011;12898;50.520;12.152;2022-09-23T13:58:23;5.18;;;1.73;;
24801;SDS011;12898;50.520;12.152;2022-09-23T14:00:49;3.10;;;1.80;;
24801;SDS011;12898;50.520;12.152;2022-09-23T14:03:37;2.13;;;1.50;;
24801;SDS011;12898;50.520;12.152;2022-09-23T14:06:10;4.40;;;1.80;;
24801;SDS011;12898;50.520;12.152;2022-09-23T14:08:38;1.85;;;1.60;;
24801;SDS011;12898;50.520;12.152;2022-09-23T14:11:08;5.13;;;1.95;;
24801;SDS011;12898;50.520;12.152;2022-09-23T14:13:47;4.20;;;1.80;;
24801;SDS011;12898;50.520;12.152;2022-09-23T14:16:18;2.78;;;1.52;;
24801;SDS011;12898;50.520;12.152;2022-09-23T14:18:45;2.83;;;1.60;;
24801;SDS011;12898;50.520;12.152;2022-09-23T14:21:30;2.13;;;1.60;;
24801;SDS011;12898;50.520;12.152;2022-09-23T14:24:11;2.92;;;1.83;;
24801;SDS011;12898;50.520;12.152;2022-09-23T14:26:36;2.88;;;1.63;;
24801;SDS011;12898;50.520;12.152;2022-09-23T14:29:03;5.35;;;1.80;;
24801;SDS011;12898;50.520;12.152;2022-09-23T14:31:35;2.08;;;1.70;;
24801;SDS011;12898;50.520;12.152;2022-09-23T14:34:01;2.97;;;1.38;;
24801;SDS011;12898;50.520;12.152;2022-09-23T14:36:26;2.83;;;1.50;;
24801;SDS011;12898;50.520;12.152;2022-09-23T14:39:17;2.60;;;1.60;;
24801;SDS011;12898;50.520;12.152;2022-09-23T14:41:43;3.17;;;1.75;;
24801;SDS011;12898;50.520;12.152;2022-09-23T14:44:17;3.83;;;2.00;;
24801;SDS011;12898;50.520;12.152;2022-09-23T14:46:51;8.07;;;3.70;;
24801;SDS011;12898;50.520;12.152;2022-09-23T14:49:22;2.80;;;1.90;;
24801;SDS011;12898;50.520;12.152;2022-09-23T14:51:58;3.08;;;1.88;;
24801;SDS011;12898;50.520;12.152;2022-09-23T14:56:59;2.30;;;1.67;;
24801;SDS011;12898;50.520;12.152;2022-09-23T14:59:33;2.78;;;1.80;;
24801;SDS011;12898;50.520;12.152;2022-09-23T15:02:01;2.33;;;1.70;;
24801;SDS011;12898;50.520;12.152;2022-09-23T15:05:05;2.10;;;1.60;;
24801;SDS011;12898;50.520;12.152;2022-09-23T15:07:35;2.15;;;1.55;;
24801;SDS011;12898;50.520;12.152;2022-09-23T15:10:04;4.55;;;1.88;;
24801;SDS011;12898;50.520;12.152;2022-09-23T15:12:41;3.72;;;2.22;;
24801;SDS011;12898;50.520;12.152;2022-09-23T15:15:13;5.30;;;2.33;;
24801;SDS011;12898;50.520;12.152;2022-09-23T15:17:39;3.88;;;2.20;;
24801;SDS011;12898;50.520;12.152;2022-09-23T15:20:06;2.97;;;1.92;;
24801;SDS011;12898;50.520;12.152;2022-09-23T15:22:43;5.78;;;1.98;;
24801;SDS011;12898;50.520;12.152;2022-09-23T15:30:36;2.95;;;1.77;;
24801;SDS011;12898;50.520;12.152;2022-09-23T15:33:03;1.67;;;1.40;;
24801;SDS011;12898;50.520;12.152;2022-09-23T15:35:30;2.03;;;1.70;;
24801;SDS011;12898;50.520;12.152;2022-09-23T15:37:57;2.90;;;1.90;;
24801;SDS011;12898;50.520;12.152;2022-09-23T15:40:29;2.70;;;1.75;;
24801;SDS011;12898;50.520;12.152;2022-09-23T15:42:58;3.88;;;1.90;;
24801;SDS011;12898;50.520;12.152;2022-09-23T15:45:27;2.53;;;1.77;;
24801;SDS011;12898;50.520;12.152;2022-09-23T15:48:05;1.77;;;1.60;;
24801;SDS011;12898;50.520;12.152;2022-09-23T15:50:36;2.70;;;1.70;;
24801;SDS011;12898;50.520;12.152;2022-09-23T15:53:03;4.38;;;2.00;;
24801;SDS011;12898;50.520;12.152;2022-09-23T15:55:30;3.70;;;1.95;;
24801;SDS011;12898;50.520;12.152;2022-09-23T15:57:57;3.58;;;1.90;;
24801;SDS011;12898;50.520;12.152;2022-09-23T16:00:23;4.03;;;2.03;;
24801;SDS011;12898;50.520;12.152;2022-09-23T16:02:49;3.72;;;2.10;;
24801;SDS011;12898;50.520;12.152;2022-09-23T16:08:00;2.50;;;1.80;;
24801;SDS011;12898;50.520;12.152;2022-09-23T16:10:26;6.10;;;1.90;;
24801;SDS011;12898;50.520;12.152;2022-09-23T16:12:53;3.22;;;2.25;;
24801;SDS011;12898;50.520;12.152;2022-09-23T16:15:22;2.63;;;1.80;;
24801;SDS011;12898;50.520;12.152;2022-09-23T16:17:48;2.63;;;1.88;;
24801;SDS011;12898;50.520;12.152;2022-09-23T16:20:14;3.38;;;2.10;;
24801;SDS011;12898;50.520;12.152;2022-09-23T16:22:46;3.17;;;2.03;;
24801;SDS011;12898;50.520;12.152;2022-09-23T16:25:13;3.65;;;2.30;;
24801;SDS011;12898;50.520;12.152;2022-09-23T16:27:39;4.38;;;2.50;;
24801;SDS011;12898;50.520;12.152;2022-09-23T16:30:05;5.53;;;3.22;;
24801;SDS011;12898;50.520;12.152;2022-09-23T16:32:32;4.78;;;2.53;;
24801;SDS011;12898;50.520;12.152;2022-09-23T16:34:57;4.70;;;2.42;;
24801;SDS011;12898;50.520;12.152;2022-09-23T16:37:23;4.10;;;2.38;;
24801;SDS011;12898;50.520;12.152;2022-09-23T16:39:49;4.13;;;2.67;;
24801;SDS011;12898;50.520;12.152;2022-09-23T16:42:15;13.68;;;7.78;;
24801;SDS011;12898;50.520;12.152;2022-09-23T16:44:40;20.77;;;14.93;;
24801;SDS011;12898;50.520;12.152;2022-09-23T16:47:06;21.10;;;16.17;;
24801;SDS011;12898;50.520;12.152;2022-09-23T16:49:32;23.73;;;16.10;;
24801;SDS011;12898;50.520;12.152;2022-09-23T16:51:59;20.58;;;14.30;;
24801;SDS011;12898;50.520;12.152;2022-09-23T16:54:25;17.55;;;12.10;;
24801;SDS011;12898;50.520;12.152;2022-09-23T16:56:51;14.43;;;8.93;;
24801;SDS011;12898;50.520;12.152;2022-09-23T16:59:19;12.30;;;7.90;;
24801;SDS011;12898;50.520;12.152;2022-09-23T17:01:45;12.35;;;8.55;;
24801;SDS011;12898;50.520;12.152;2022-09-23T17:04:29;13.75;;;8.45;;
24801;SDS011;12898;50.520;12.152;2022-09-23T17:06:55;17.88;;;12.20;;
24801;SDS011;12898;50.520;12.152;2022-09-23T17:09:22;20.45;;;14.57;;
24801;SDS011;12898;50.520;12.152;2022-09-23T17:12:08;17.67;;;11.90;;
24801;SDS011;12898;50.520;12.152;2022-09-23T17:14:44;15.68;;;9.80;;
24801;SDS011;12898;50.520;12.152;2022-09-23T17:17:09;9.40;;;6.22;;
24801;SDS011;12898;50.520;12.152;2022-09-23T17:19:36;8.82;;;4.43;;
24801;SDS011;12898;50.520;12.152;2022-09-23T17:22:05;7.63;;;4.45;;
24801;SDS011;12898;50.520;12.152;2022-09-23T17:24:30;11.13;;;6.47;;
24801;SDS011;12898;50.520;12.152;2022-09-23T17:26:56;12.63;;;7.97;;
24801;SDS011;12898;50.520;12.152;2022-09-23T17:29:22;15.25;;;9.57;;
24801;SDS011;12898;50.520;12.152;2022-09-23T17:31:52;13.18;;;8.43;;
24801;SDS011;12898;50.520;12.152;2022-09-23T17:34:19;19.02;;;12.57;;
24801;SDS011;12898;50.520;12.152;2022-09-23T17:36:44;23.80;;;14.60;;
24801;SDS011;12898;50.520;12.152;2022-09-23T17:39:10;18.73;;;12.73;;
24801;SDS011;12898;50.520;12.152;2022-09-23T17:41:36;15.13;;;8.40;;
24801;SDS011;12898;50.520;12.152;2022-09-23T17:44:03;12.18;;;7.75;;
24801;SDS011;12898;50.520;12.152;2022-09-23T17:46:29;9.98;;;6.45;;
24801;SDS011;12898;50.520;12.152;2022-09-23T17:48:56;10.20;;;6.47;;
24801;SDS011;12898;50.520;12.152;2022-09-23T17:51:22;8.65;;;4.95;;
24801;SDS011;12898;50.520;12.152;2022-09-23T17:53:49;7.65;;;4.90;;
24801;SDS011;12898;50.520;12.152;2022-09-23T17:58:49;9.32;;;5.93;;
24801;SDS011;12898;50.520;12.152;2022-09-23T18:01:20;11.13;;;6.45;;
24801;SDS011;12898;50.520;12.152;2022-09-23T18:03:52;12.43;;;6.57;;
24801;SDS011;12898;50.520;12.152;2022-09-23T18:06:29;19.80;;;13.60;;